createdAt,value
2022-08-19T00:01:59.020Z,99.90
2022-08-19T00:04:31.727Z,99.90
2022-08-19T00:07:00.790Z,99.90
2022-08-19T00:09:29.014Z,99.90
2022-08-19T00:11:58.748Z,99.90
2022-08-19T00:14:27.563Z,99.90
2022-08-19T00:16:57.016Z,99.90
2022-08-19T00:19:24.929Z,99.90
2022-08-19T00:21:53.845Z,99.90
2022-08-19T00:24:23.187Z,99.90
2022-08-19T00:26:51.742Z,99.90
2022-08-19T00:29:22.042Z,99.90
2022-08-19T00:31:51.292Z,99.90
2022-08-19T00:34:18.993Z,99.90
2022-08-19T00:36:47.131Z,99.90
2022-08-19T00:39:19.442Z,99.90
2022-08-19T00:41:49.838Z,99.90
2022-08-19T00:44:27.167Z,99.90
2022-08-19T00:46:59.948Z,99.90
2022-08-19T00:49:35.188Z,99.90
2022-08-19T00:52:08.933Z,99.90
2022-08-19T00:54:38.210Z,99.90
2022-08-19T00:57:10.153Z,99.90
2022-08-19T01:00:01.068Z,99.90
2022-08-19T01:02:29.142Z,99.90
2022-08-19T01:04:57.639Z,99.90
2022-08-19T01:07:25.978Z,99.90
2022-08-19T01:09:54.667Z,99.90
2022-08-19T01:12:22.572Z,99.90
2022-08-19T01:14:51.455Z,99.90
2022-08-19T01:17:20.112Z,99.90
2022-08-19T01:19:48.823Z,99.90
2022-08-19T01:22:33.420Z,99.90
2022-08-19T01:25:03.648Z,99.90
2022-08-19T01:27:45.625Z,99.90
2022-08-19T01:30:24.966Z,99.90
2022-08-19T01:32:53.994Z,99.90
2022-08-19T01:35:24.732Z,99.90
2022-08-19T01:37:55.924Z,99.90
2022-08-19T01:40:27.260Z,99.90
2022-08-19T01:45:25.853Z,99.90
2022-08-19T01:48:01.607Z,99.90
2022-08-19T01:50:34.491Z,99.90
2022-08-19T01:53:06.891Z,99.90
2022-08-19T01:55:42.154Z,99.90
2022-08-19T01:58:18.370Z,99.90
2022-08-19T02:00:46.385Z,99.90
2022-08-19T02:03:14.516Z,99.90
2022-08-19T02:05:43.190Z,99.90
2022-08-19T02:08:11.301Z,99.90
2022-08-19T02:10:44.511Z,99.90
2022-08-19T02:13:14.135Z,99.90
2022-08-19T02:15:42.404Z,99.90
2022-08-19T02:18:10.567Z,99.90
2022-08-19T02:20:39.958Z,99.90
2022-08-19T02:23:13.555Z,99.90
2022-08-19T02:25:45.642Z,99.90
2022-08-19T02:28:18.377Z,99.90
2022-08-19T02:30:48.029Z,99.90
2022-08-19T02:33:16.417Z,99.90
2022-08-19T02:35:46.205Z,99.90
2022-08-19T02:38:26.546Z,99.90
2022-08-19T02:40:57.873Z,99.90
2022-08-19T02:43:27.325Z,99.90
2022-08-19T02:45:55.562Z,99.90
2022-08-19T02:48:25.430Z,99.90
2022-08-19T02:50:56.163Z,99.90
2022-08-19T02:53:27.647Z,99.90
2022-08-19T02:55:56.087Z,99.90
2022-08-19T02:58:25.199Z,99.90
2022-08-19T03:00:56.681Z,99.90
2022-08-19T03:03:24.786Z,99.90
2022-08-19T03:05:56.446Z,99.90
2022-08-19T03:08:26.976Z,99.90
2022-08-19T03:10:55.087Z,99.90
2022-08-19T03:13:24.442Z,99.90
2022-08-19T03:15:52.182Z,99.90
2022-08-19T03:18:19.991Z,99.90
2022-08-19T03:20:57.525Z,99.90
2022-08-19T03:23:27.999Z,99.90
2022-08-19T03:26:02.813Z,99.90
2022-08-19T03:28:51.576Z,99.90
2022-08-19T03:31:44.941Z,99.90
2022-08-19T03:34:29.410Z,99.90
2022-08-19T03:36:59.438Z,99.90
2022-08-19T03:39:27.588Z,99.90
2022-08-19T03:42:31.985Z,99.90
2022-08-19T03:44:51.573Z,99.90
2022-08-19T03:47:19.305Z,99.90
2022-08-19T03:49:48.255Z,99.90
2022-08-19T03:52:16.627Z,99.90
2022-08-19T03:54:44.214Z,99.90
2022-08-19T03:57:12.218Z,99.90
2022-08-19T03:59:40.149Z,99.90
2022-08-19T04:02:11.399Z,99.90
2022-08-19T04:04:44.239Z,99.90
2022-08-19T04:09:44.154Z,99.90
2022-08-19T04:12:12.092Z,99.90
2022-08-19T04:14:40.667Z,99.90
2022-08-19T04:17:08.742Z,99.90
2022-08-19T04:19:37.596Z,99.90
2022-08-19T04:22:06.181Z,99.90
2022-08-19T04:24:36.137Z,99.90
2022-08-19T04:27:03.922Z,99.90
2022-08-19T04:29:33.225Z,99.90
2022-08-19T04:32:09.272Z,99.90
2022-08-19T04:35:02.482Z,99.90
2022-08-19T04:37:29.467Z,99.90
2022-08-19T04:40:23.419Z,99.90
2022-08-19T04:42:51.077Z,99.90
2022-08-19T04:45:18.945Z,99.90
2022-08-19T04:50:42.872Z,99.90
2022-08-19T04:53:11.446Z,99.90
2022-08-19T04:55:43.489Z,99.90
2022-08-19T05:00:41.070Z,99.90
2022-08-19T05:03:09.516Z,99.90
2022-08-19T05:05:45.184Z,99.90
2022-08-19T05:08:31.404Z,99.90
2022-08-19T05:10:59.536Z,99.90
2022-08-19T05:13:28.041Z,99.90
2022-08-19T05:15:58.650Z,99.90
2022-08-19T05:18:45.689Z,99.90
2022-08-19T05:21:35.333Z,99.90
2022-08-19T05:24:04.380Z,99.90
2022-08-19T05:26:32.005Z,99.90
2022-08-19T05:31:27.954Z,99.90
2022-08-19T05:33:55.502Z,99.90
2022-08-19T05:36:23.046Z,99.90
2022-08-19T05:38:51.131Z,99.90
2022-08-19T05:41:18.720Z,99.90
2022-08-19T05:43:46.340Z,99.90
2022-08-19T05:46:28.161Z,99.90
2022-08-19T05:48:57.648Z,99.90
2022-08-19T05:51:28.922Z,99.90
2022-08-19T05:53:57.290Z,99.90
2022-08-19T05:56:25.834Z,99.90
2022-08-19T05:58:55.226Z,99.90
2022-08-19T06:01:22.705Z,99.90
2022-08-19T06:03:50.326Z,99.90
2022-08-19T06:06:18.647Z,99.90
2022-08-19T06:08:51.127Z,99.90
2022-08-19T06:11:44.439Z,99.90
2022-08-19T06:14:16.780Z,99.90
2022-08-19T06:16:45.615Z,99.90
2022-08-19T06:19:16.826Z,99.90
2022-08-19T06:21:47.584Z,99.90
2022-08-19T06:24:17.964Z,99.90
2022-08-19T06:29:24.054Z,99.90
2022-08-19T06:31:55.407Z,99.90
2022-08-19T06:34:23.602Z,99.90
2022-08-19T06:36:53.046Z,99.90
2022-08-19T06:39:27.519Z,99.90
2022-08-19T06:41:58.960Z,99.90
2022-08-19T06:44:35.386Z,99.90
2022-08-19T06:47:14.816Z,99.90
2022-08-19T06:49:50.824Z,99.90
2022-08-19T06:52:18.460Z,99.90
2022-08-19T06:54:56.511Z,99.90
2022-08-19T06:57:25.647Z,99.90
2022-08-19T06:59:53.413Z,99.90
2022-08-19T07:02:21.749Z,99.90
2022-08-19T07:04:52.726Z,99.90
2022-08-19T07:07:21.869Z,99.90
2022-08-19T07:09:59.045Z,99.90
2022-08-19T07:12:30.963Z,99.90
2022-08-19T07:14:59.148Z,99.90
2022-08-19T07:17:28.964Z,99.90
2022-08-19T07:19:56.554Z,99.90
2022-08-19T07:22:24.586Z,99.90
2022-08-19T07:24:52.689Z,99.90
2022-08-19T07:27:24.566Z,99.90
2022-08-19T07:29:57.176Z,99.90
2022-08-19T07:32:28.658Z,99.90
2022-08-19T07:34:57.124Z,99.90
2022-08-19T07:37:32.433Z,99.90
2022-08-19T07:40:02.145Z,99.90
2022-08-19T07:42:30.936Z,99.90
2022-08-19T07:44:59.752Z,99.90
2022-08-19T07:47:50.229Z,99.90
2022-08-19T07:50:17.303Z,99.90
2022-08-19T07:52:48.656Z,99.90
2022-08-19T07:55:40.659Z,99.90
2022-08-19T07:58:07.723Z,99.90
2022-08-19T08:00:36.413Z,99.90
2022-08-19T08:03:04.300Z,99.90
2022-08-19T08:05:50.653Z,99.90
2022-08-19T08:08:36.656Z,99.90
2022-08-19T08:11:07.761Z,99.90
2022-08-19T08:13:39.098Z,99.90
2022-08-19T08:16:10.287Z,99.90
2022-08-19T08:18:50.770Z,99.90
2022-08-19T08:21:21.076Z,99.90
2022-08-19T08:23:48.860Z,99.90
2022-08-19T08:26:17.095Z,99.90
2022-08-19T08:28:49.568Z,99.90
2022-08-19T08:31:17.527Z,99.90
2022-08-19T08:33:45.691Z,99.90
2022-08-19T08:36:17.252Z,99.90
2022-08-19T08:38:49.066Z,99.90
2022-08-19T08:41:45.954Z,99.90
2022-08-19T08:44:22.013Z,99.90
2022-08-19T08:46:54.587Z,99.90
2022-08-19T08:49:37.415Z,99.90
2022-08-19T08:52:12.259Z,99.90
2022-08-19T08:54:49.091Z,99.90
2022-08-19T08:57:26.180Z,99.90
2022-08-19T08:59:59.124Z,99.90
2022-08-19T09:02:27.838Z,99.90
2022-08-19T09:04:56.271Z,99.90
2022-08-19T09:08:12.078Z,99.90
2022-08-19T09:10:55.236Z,99.90
2022-08-19T09:13:37.506Z,99.90
2022-08-19T09:16:11.146Z,99.90
2022-08-19T09:18:54.725Z,99.90
2022-08-19T09:21:30.223Z,99.90
2022-08-19T09:23:59.616Z,99.90
2022-08-19T09:26:35.238Z,99.90
2022-08-19T09:29:15.497Z,99.90
2022-08-19T09:31:45.438Z,99.90
2022-08-19T09:34:21.029Z,99.90
2022-08-19T09:36:54.317Z,99.90
2022-08-19T09:39:23.034Z,99.90
2022-08-19T09:41:53.963Z,99.90
2022-08-19T09:44:21.904Z,99.90
2022-08-19T09:46:50.303Z,99.90
2022-08-19T09:49:19.613Z,99.90
2022-08-19T09:51:52.048Z,99.90
2022-08-19T09:54:23.614Z,99.90
2022-08-19T09:56:56.245Z,99.90
2022-08-19T09:59:24.053Z,99.90
2022-08-19T10:01:52.581Z,99.90
2022-08-19T10:04:22.442Z,99.90
2022-08-19T10:06:53.866Z,99.90
2022-08-19T10:09:34.033Z,99.90
2022-08-19T10:12:03.956Z,99.90
2022-08-19T10:14:32.641Z,99.90
2022-08-19T10:17:04.617Z,99.90
2022-08-19T10:22:25.741Z,99.90
2022-08-19T10:24:54.854Z,99.90
2022-08-19T10:27:22.718Z,99.90
2022-08-19T10:29:50.570Z,99.90
2022-08-19T10:32:18.708Z,99.90
2022-08-19T10:35:09.623Z,99.90
2022-08-19T10:37:56.967Z,99.90
2022-08-19T10:40:28.553Z,99.90
2022-08-19T10:42:57.159Z,99.90
2022-08-19T10:45:26.971Z,99.90
2022-08-19T10:47:56.471Z,99.90
2022-08-19T10:50:43.422Z,99.90
2022-08-19T10:55:58.743Z,99.90
2022-08-19T10:58:27.188Z,99.90
2022-08-19T11:00:58.528Z,99.90
2022-08-19T11:03:28.864Z,99.90
2022-08-19T11:06:06.253Z,99.90
2022-08-19T11:08:35.955Z,99.90
2022-08-19T11:11:04.538Z,99.90
2022-08-19T11:13:37.211Z,99.90
2022-08-19T11:16:15.899Z,99.90
2022-08-19T11:18:47.272Z,99.90
2022-08-19T11:21:22.013Z,99.90
2022-08-19T11:23:52.168Z,99.90
2022-08-19T11:26:21.567Z,99.90
2022-08-19T11:28:49.871Z,99.90
2022-08-19T11:31:20.499Z,99.90
2022-08-19T11:33:52.003Z,99.90
2022-08-19T11:36:21.754Z,99.90
2022-08-19T11:38:50.703Z,99.90
2022-08-19T11:41:21.410Z,99.90
2022-08-19T11:43:49.183Z,99.90
2022-08-19T11:46:18.356Z,99.90
2022-08-19T11:48:46.009Z,99.90
2022-08-19T11:51:16.817Z,99.90
2022-08-19T11:53:44.519Z,99.90
2022-08-19T11:56:13.215Z,99.90
2022-08-19T11:58:43.136Z,99.90
2022-08-19T12:01:13.484Z,99.90
2022-08-19T12:03:41.740Z,99.90
2022-08-19T12:06:14.190Z,99.90
2022-08-19T12:08:43.457Z,99.90
2022-08-19T12:11:12.696Z,99.90
2022-08-19T12:13:41.101Z,99.90
2022-08-19T12:16:17.645Z,99.90
2022-08-19T12:18:47.377Z,99.90
2022-08-19T12:21:22.796Z,99.90
2022-08-19T12:23:55.654Z,99.90
2022-08-19T12:26:24.879Z,99.90
2022-08-19T12:28:53.165Z,99.90
2022-08-19T12:31:21.117Z,99.90
2022-08-19T12:33:49.126Z,99.60
2022-08-19T12:36:18.765Z,99.60
2022-08-19T12:38:47.885Z,98.00
2022-08-19T12:41:19.435Z,96.40
2022-08-19T12:43:48.758Z,96.10
2022-08-19T12:51:23.018Z,95.20
2022-08-19T12:53:51.096Z,96.00
2022-08-19T12:56:23.173Z,96.40
2022-08-19T12:58:53.012Z,94.80
2022-08-19T13:01:23.130Z,95.00
2022-08-19T13:03:55.257Z,94.30
2022-08-19T13:06:23.926Z,92.90
2022-08-19T13:11:25.642Z,91.10
2022-08-19T13:13:56.132Z,91.80
2022-08-19T13:16:30.181Z,91.20
2022-08-19T13:18:58.869Z,89.60
2022-08-19T13:21:28.960Z,89.00
2022-08-19T13:23:57.310Z,87.70
2022-08-19T13:26:25.071Z,85.90
2022-08-19T13:29:11.262Z,86.30
2022-08-19T13:32:00.387Z,87.20
2022-08-19T13:34:32.974Z,86.70
2022-08-19T13:37:05.767Z,86.70
2022-08-19T13:39:34.971Z,84.60
2022-08-19T13:42:05.214Z,84.40
2022-08-19T13:44:33.434Z,82.60
2022-08-19T13:47:10.901Z,82.00
2022-08-19T13:49:38.461Z,78.80
2022-08-19T13:52:07.000Z,79.30
2022-08-19T13:54:34.928Z,78.70
2022-08-19T13:57:03.575Z,74.60
2022-08-19T13:59:31.157Z,74.40
2022-08-19T14:02:00.766Z,76.60
2022-08-19T14:04:28.603Z,73.00
2022-08-19T14:06:56.262Z,73.70
2022-08-19T14:09:24.481Z,70.90
2022-08-19T14:11:52.709Z,70.60
2022-08-19T14:14:20.652Z,70.00
2022-08-19T14:16:50.069Z,68.90
2022-08-19T14:19:17.915Z,70.40
2022-08-19T14:21:45.895Z,67.10
2022-08-19T14:24:13.586Z,65.40
2022-08-19T14:26:41.368Z,65.40
2022-08-19T14:29:09.322Z,62.40
2022-08-19T14:31:36.801Z,62.80
2022-08-19T14:34:04.688Z,60.40
2022-08-19T14:36:38.988Z,59.90
2022-08-19T14:39:07.521Z,58.90
2022-08-19T14:44:04.211Z,58.60
2022-08-19T14:46:32.456Z,58.50
2022-08-19T14:51:36.824Z,56.80
2022-08-19T14:56:33.293Z,54.40
2022-08-19T15:01:30.168Z,53.80
2022-08-19T15:03:58.576Z,54.10
2022-08-19T15:06:27.230Z,52.60
2022-08-19T15:08:55.314Z,52.60
2022-08-19T15:11:26.405Z,52.90
2022-08-19T15:13:54.361Z,53.80
2022-08-19T15:16:23.687Z,52.70
2022-08-19T15:18:55.489Z,54.00
2022-08-19T15:21:27.599Z,53.60
2022-08-19T15:23:58.095Z,54.30
2022-08-19T15:26:28.895Z,54.30
2022-08-19T15:28:57.078Z,55.00
2022-08-19T15:31:28.791Z,55.00
2022-08-19T15:33:58.838Z,54.60
2022-08-19T15:36:28.018Z,54.80
2022-08-19T15:38:57.178Z,54.80
2022-08-19T15:41:28.475Z,54.60
2022-08-19T15:44:10.445Z,55.10
2022-08-19T15:46:40.567Z,55.20
2022-08-19T15:49:09.472Z,55.20
2022-08-19T15:51:39.262Z,55.60
2022-08-19T15:54:10.322Z,55.90
2022-08-19T15:56:58.684Z,56.50
2022-08-19T15:59:47.190Z,57.50
2022-08-19T16:02:38.183Z,57.80
2022-08-19T16:05:28.704Z,58.40
2022-08-19T16:07:57.222Z,58.40
2022-08-19T16:10:26.027Z,58.40
2022-08-19T16:12:59.482Z,59.00
2022-08-19T16:15:30.529Z,58.80
2022-08-19T16:17:58.556Z,58.80
2022-08-19T16:20:28.117Z,59.50
2022-08-19T16:23:00.049Z,59.60
2022-08-19T16:28:07.778Z,59.10
2022-08-19T16:30:40.146Z,59.20
2022-08-19T16:33:11.120Z,59.30
2022-08-19T16:35:39.442Z,59.40
2022-08-19T16:38:07.208Z,61.80
2022-08-19T16:40:35.601Z,60.00
2022-08-19T16:43:03.990Z,60.00
2022-08-19T16:45:32.596Z,60.00
2022-08-19T16:48:00.452Z,60.70
2022-08-19T16:50:47.760Z,60.10
2022-08-19T16:53:17.316Z,60.30
2022-08-19T16:55:51.285Z,60.30
2022-08-19T16:58:19.852Z,60.70
2022-08-19T17:00:49.944Z,61.00
2022-08-19T17:03:19.682Z,61.70
2022-08-19T17:06:18.257Z,61.70
2022-08-19T17:08:54.000Z,61.60
2022-08-19T17:11:24.667Z,61.60
2022-08-19T17:13:53.019Z,62.00
2022-08-19T17:16:27.000Z,62.20
2022-08-19T17:18:58.325Z,62.20
2022-08-19T17:21:32.229Z,62.30
2022-08-19T17:24:02.069Z,62.60
2022-08-19T17:26:34.743Z,63.30
2022-08-19T17:31:32.197Z,63.10
2022-08-19T17:34:00.526Z,63.10
2022-08-19T17:36:30.833Z,63.90
2022-08-19T17:39:00.585Z,63.30
2022-08-19T17:41:30.465Z,64.00
2022-08-19T17:43:58.327Z,64.80
2022-08-19T17:46:26.462Z,64.20
2022-08-19T17:51:42.167Z,64.70
2022-08-19T17:54:14.094Z,65.50
2022-08-19T17:56:42.646Z,65.60
2022-08-19T17:59:13.861Z,65.70
2022-08-19T18:01:53.182Z,64.90
2022-08-19T18:04:24.864Z,65.10
2022-08-19T18:06:55.061Z,65.10
2022-08-19T18:09:41.239Z,65.30
2022-08-19T18:12:12.009Z,66.10
2022-08-19T18:14:40.770Z,66.00
2022-08-19T18:17:12.991Z,66.70
2022-08-19T18:19:43.570Z,66.50
2022-08-19T18:22:24.305Z,67.20
2022-08-19T18:24:52.116Z,66.90
2022-08-19T18:27:20.338Z,66.90
2022-08-19T18:29:48.095Z,68.00
2022-08-19T18:32:23.062Z,68.10
2022-08-19T18:34:53.056Z,68.40
2022-08-19T18:37:20.865Z,68.60
2022-08-19T18:40:07.039Z,68.70
2022-08-19T18:42:53.315Z,68.80
2022-08-19T18:45:39.539Z,69.00
2022-08-19T18:48:30.718Z,69.60
2022-08-19T18:51:00.349Z,69.40
2022-08-19T18:53:31.020Z,70.10
2022-08-19T18:55:59.661Z,69.80
2022-08-19T18:58:35.152Z,70.30
2022-08-19T19:01:12.581Z,70.50
2022-08-19T19:03:52.858Z,70.60
2022-08-19T19:06:23.650Z,70.80
2022-08-19T19:08:53.017Z,70.80
2022-08-19T19:11:32.736Z,70.40
2022-08-19T19:14:02.663Z,70.80
2022-08-19T19:16:31.842Z,71.50
2022-08-19T19:19:06.862Z,71.70
2022-08-19T19:21:35.402Z,72.30
2022-08-19T19:24:03.210Z,71.80
2022-08-19T19:26:30.991Z,72.10
2022-08-19T19:29:00.201Z,72.80
2022-08-19T19:31:27.897Z,72.80
2022-08-19T19:33:56.291Z,73.10
2022-08-19T19:36:24.260Z,73.30
2022-08-19T19:38:52.157Z,73.60
2022-08-19T19:41:25.920Z,73.90
2022-08-19T19:44:29.941Z,74.60
2022-08-19T19:46:48.869Z,74.90
2022-08-19T19:49:16.705Z,74.90
2022-08-19T19:51:44.268Z,75.20
2022-08-19T19:54:19.545Z,75.60
2022-08-19T19:56:50.451Z,75.70
2022-08-19T19:59:18.547Z,76.00
2022-08-19T20:04:18.868Z,76.60
2022-08-19T20:06:47.379Z,76.90
2022-08-19T20:09:19.883Z,77.50
2022-08-19T20:11:54.628Z,78.20
2022-08-19T20:14:25.920Z,77.80
2022-08-19T20:16:55.149Z,77.70
2022-08-19T20:19:31.325Z,77.80
2022-08-19T20:21:58.988Z,78.50
2022-08-19T20:24:31.306Z,78.00
2022-08-19T20:27:00.479Z,78.30
2022-08-19T20:29:38.247Z,79.00
2022-08-19T20:32:09.633Z,79.20
2022-08-19T20:34:39.299Z,79.60
2022-08-19T20:37:09.702Z,79.80
2022-08-19T20:39:38.347Z,80.10
2022-08-19T20:42:06.031Z,80.80
2022-08-19T20:44:33.798Z,80.20
2022-08-19T20:47:03.931Z,80.40
2022-08-19T20:49:32.350Z,80.60
2022-08-19T20:52:00.447Z,81.30
2022-08-19T20:54:29.794Z,80.80
2022-08-19T20:56:57.693Z,80.80
2022-08-19T20:59:27.056Z,81.00
2022-08-19T21:01:54.906Z,81.30
2022-08-19T21:04:22.798Z,81.20
2022-08-19T21:06:51.145Z,81.40
2022-08-19T21:09:18.717Z,81.60
2022-08-19T21:11:46.654Z,81.80
2022-08-19T21:14:14.331Z,82.10
2022-08-19T21:16:42.643Z,82.60
2022-08-19T21:19:10.405Z,82.60
2022-08-19T21:21:38.372Z,82.70
2022-08-19T21:24:06.325Z,83.10
2022-08-19T21:31:29.845Z,84.00
2022-08-19T21:36:25.282Z,84.60
2022-08-19T21:38:52.938Z,84.80
2022-08-19T21:41:20.637Z,85.20
2022-08-19T21:43:48.624Z,85.20
2022-08-19T21:46:16.513Z,85.60
2022-08-19T21:48:44.385Z,85.80
2022-08-19T21:51:11.841Z,86.00
2022-08-19T21:53:39.498Z,86.40
2022-08-19T21:56:07.559Z,86.80
2022-08-19T21:58:38.709Z,87.50
2022-08-19T22:01:07.980Z,88.00
2022-08-19T22:03:38.330Z,88.70
2022-08-19T22:06:06.823Z,88.70
2022-08-19T22:08:34.468Z,88.70
2022-08-19T22:11:03.612Z,89.20
2022-08-19T22:13:40.087Z,89.50
2022-08-19T22:16:10.035Z,89.90
2022-08-19T22:18:37.828Z,90.10
2022-08-19T22:23:44.394Z,90.30
2022-08-19T22:26:13.775Z,90.50
2022-08-19T22:28:42.169Z,90.50
2022-08-19T22:31:11.457Z,90.60
2022-08-19T22:33:40.238Z,91.00
2022-08-19T22:36:08.780Z,90.80
2022-08-19T22:38:38.485Z,91.00
2022-08-19T22:43:37.612Z,91.50
2022-08-19T22:46:17.219Z,91.50
2022-08-19T22:48:46.807Z,91.60
2022-08-19T22:51:34.309Z,91.60
2022-08-19T22:54:02.544Z,91.90
2022-08-19T22:56:30.578Z,91.70
2022-08-19T22:58:58.461Z,91.70
2022-08-19T23:01:30.552Z,92.10
2022-08-19T23:03:59.981Z,92.20
2022-08-19T23:06:33.841Z,92.10
2022-08-19T23:09:06.407Z,92.50
2022-08-19T23:11:42.116Z,92.50
2022-08-19T23:14:11.393Z,92.50
2022-08-19T23:16:41.677Z,92.60
2022-08-19T23:19:10.286Z,92.80
2022-08-19T23:21:42.766Z,92.90
2022-08-19T23:24:11.000Z,93.00
2022-08-19T23:26:38.750Z,93.20
2022-08-19T23:29:24.769Z,93.60
2022-08-19T23:31:52.334Z,93.60
2022-08-19T23:34:20.477Z,93.70
2022-08-19T23:36:50.409Z,93.50
2022-08-19T23:39:18.249Z,93.60
2022-08-19T23:41:45.797Z,94.10
2022-08-19T23:44:14.891Z,94.20
2022-08-19T23:46:54.471Z,94.40
2022-08-19T23:49:24.670Z,94.30
2022-08-19T23:51:54.335Z,94.80
2022-08-19T23:54:22.084Z,94.60
2022-08-19T23:57:01.776Z,94.80
2022-08-19T23:59:29.440Z,94.80
